sensor_id;sensor_type;location;lat;lon;timestamp;temperature;humidity
71082;SHT31;58740;50.672;18.690;2023-07-20T00:00:07;20.44;62.95
71082;SHT31;58740;50.672;18.690;2023-07-20T00:03:13;20.45;62.42
71082;SHT31;58740;50.672;18.690;2023-07-20T00:05:46;20.48;61.78
71082;SHT31;58740;50.672;18.690;2023-07-20T00:08:15;20.50;61.44
71082;SHT31;58740;50.672;18.690;2023-07-20T00:10:44;20.53;61.00
71082;SHT31;58740;50.672;18.690;2023-07-20T00:13:12;20.55;60.74
71082;SHT31;58740;50.672;18.690;2023-07-20T00:15:40;20.57;60.40
71082;SHT31;58740;50.672;18.690;2023-07-20T00:18:08;20.58;60.19
71082;SHT31;58740;50.672;18.690;2023-07-20T00:20:36;20.59;59.98
71082;SHT31;58740;50.672;18.690;2023-07-20T00:23:04;20.61;59.91
71082;SHT31;58740;50.672;18.690;2023-07-20T00:25:32;20.59;59.62
71082;SHT31;58740;50.672;18.690;2023-07-20T00:28:01;20.57;59.69
71082;SHT31;58740;50.672;18.690;2023-07-20T00:30:29;20.57;59.37
71082;SHT31;58740;50.672;18.690;2023-07-20T00:32:57;20.51;58.97
71082;SHT31;58740;50.672;18.690;2023-07-20T00:35:25;20.48;58.72
71082;SHT31;58740;50.672;18.690;2023-07-20T00:37:52;20.46;58.20
71082;SHT31;58740;50.672;18.690;2023-07-20T00:40:20;20.43;57.65
71082;SHT31;58740;50.672;18.690;2023-07-20T00:42:48;20.42;57.32
71082;SHT31;58740;50.672;18.690;2023-07-20T00:45:16;20.41;57.11
71082;SHT31;58740;50.672;18.690;2023-07-20T00:47:44;20.39;57.22
71082;SHT31;58740;50.672;18.690;2023-07-20T00:50:12;20.38;57.65
71082;SHT31;58740;50.672;18.690;2023-07-20T00:52:40;20.37;58.19
71082;SHT31;58740;50.672;18.690;2023-07-20T00:55:08;20.33;59.04
71082;SHT31;58740;50.672;18.690;2023-07-20T00:57:37;20.29;59.59
71082;SHT31;58740;50.672;18.690;2023-07-20T01:00:05;20.26;59.72
71082;SHT31;58740;50.672;18.690;2023-07-20T01:02:34;20.22;60.00
71082;SHT31;58740;50.672;18.690;2023-07-20T01:05:02;20.17;60.16
71082;SHT31;58740;50.672;18.690;2023-07-20T01:07:37;20.14;60.37
71082;SHT31;58740;50.672;18.690;2023-07-20T01:13:09;20.08;60.80
71082;SHT31;58740;50.672;18.690;2023-07-20T01:15:38;20.07;61.03
71082;SHT31;58740;50.672;18.690;2023-07-20T01:18:06;20.05;61.98
71082;SHT31;58740;50.672;18.690;2023-07-20T01:20:35;20.01;62.96
71082;SHT31;58740;50.672;18.690;2023-07-20T01:26:02;19.91;63.62
71082;SHT31;58740;50.672;18.690;2023-07-20T01:29:06;19.85;64.45
71082;SHT31;58740;50.672;18.690;2023-07-20T01:31:59;19.78;64.94
71082;SHT31;58740;50.672;18.690;2023-07-20T01:34:31;19.71;64.96
71082;SHT31;58740;50.672;18.690;2023-07-20T01:37:00;19.66;64.97
71082;SHT31;58740;50.672;18.690;2023-07-20T01:39:30;19.63;65.30
71082;SHT31;58740;50.672;18.690;2023-07-20T01:42:01;19.58;65.33
71082;SHT31;58740;50.672;18.690;2023-07-20T01:44:29;19.55;65.54
71082;SHT31;58740;50.672;18.690;2023-07-20T01:46:57;19.53;65.45
71082;SHT31;58740;50.672;18.690;2023-07-20T01:49:24;19.52;65.61
71082;SHT31;58740;50.672;18.690;2023-07-20T01:51:52;19.50;65.55
71082;SHT31;58740;50.672;18.690;2023-07-20T01:54:20;19.46;66.04
71082;SHT31;58740;50.672;18.690;2023-07-20T01:56:48;19.42;65.99
71082;SHT31;58740;50.672;18.690;2023-07-20T01:59:16;19.41;65.98
71082;SHT31;58740;50.672;18.690;2023-07-20T02:01:44;19.38;65.83
71082;SHT31;58740;50.672;18.690;2023-07-20T02:04:12;19.33;65.99
71082;SHT31;58740;50.672;18.690;2023-07-20T02:06:40;19.31;66.15
71082;SHT31;58740;50.672;18.690;2023-07-20T02:09:08;19.30;66.19
71082;SHT31;58740;50.672;18.690;2023-07-20T02:11:36;19.28;66.24
71082;SHT31;58740;50.672;18.690;2023-07-20T02:14:03;19.24;66.46
71082;SHT31;58740;50.672;18.690;2023-07-20T02:16:31;19.23;66.68
71082;SHT31;58740;50.672;18.690;2023-07-20T02:18:59;19.21;66.88
71082;SHT31;58740;50.672;18.690;2023-07-20T02:21:27;19.18;66.98
71082;SHT31;58740;50.672;18.690;2023-07-20T02:23:55;19.16;67.12
71082;SHT31;58740;50.672;18.690;2023-07-20T02:26:22;19.11;67.33
71082;SHT31;58740;50.672;18.690;2023-07-20T02:28:51;19.07;67.43
71082;SHT31;58740;50.672;18.690;2023-07-20T02:31:19;19.02;67.80
71082;SHT31;58740;50.672;18.690;2023-07-20T02:33:46;18.99;68.00
71082;SHT31;58740;50.672;18.690;2023-07-20T02:36:14;18.96;68.16
71082;SHT31;58740;50.672;18.690;2023-07-20T02:38:44;18.94;68.21
71082;SHT31;58740;50.672;18.690;2023-07-20T02:41:12;18.92;68.47
71082;SHT31;58740;50.672;18.690;2023-07-20T02:43:41;18.88;68.64
71082;SHT31;58740;50.672;18.690;2023-07-20T02:46:09;18.85;68.78
71082;SHT31;58740;50.672;18.690;2023-07-20T02:48:37;18.82;68.96
71082;SHT31;58740;50.672;18.690;2023-07-20T02:51:04;18.81;69.07
71082;SHT31;58740;50.672;18.690;2023-07-20T02:53:32;18.78;69.08
71082;SHT31;58740;50.672;18.690;2023-07-20T02:56:01;18.77;69.21
71082;SHT31;58740;50.672;18.690;2023-07-20T02:58:28;18.75;69.41
71082;SHT31;58740;50.672;18.690;2023-07-20T03:00:56;18.75;69.47
71082;SHT31;58740;50.672;18.690;2023-07-20T03:03:24;18.74;69.62
71082;SHT31;58740;50.672;18.690;2023-07-20T03:05:52;18.75;69.72
71082;SHT31;58740;50.672;18.690;2023-07-20T03:08:22;18.73;69.71
71082;SHT31;58740;50.672;18.690;2023-07-20T03:10:49;18.67;69.76
71082;SHT31;58740;50.672;18.690;2023-07-20T03:13:17;18.63;70.00
71082;SHT31;58740;50.672;18.690;2023-07-20T03:15:45;18.60;70.18
71082;SHT31;58740;50.672;18.690;2023-07-20T03:18:13;18.56;70.31
71082;SHT31;58740;50.672;18.690;2023-07-20T03:20:41;18.56;70.49
71082;SHT31;58740;50.672;18.690;2023-07-20T03:23:09;18.56;70.55
71082;SHT31;58740;50.672;18.690;2023-07-20T03:25:36;18.53;70.67
71082;SHT31;58740;50.672;18.690;2023-07-20T03:28:04;18.50;71.08
71082;SHT31;58740;50.672;18.690;2023-07-20T03:30:34;18.48;71.59
71082;SHT31;58740;50.672;18.690;2023-07-20T03:33:02;18.46;72.10
71082;SHT31;58740;50.672;18.690;2023-07-20T03:35:31;18.43;72.14
71082;SHT31;58740;50.672;18.690;2023-07-20T03:37:59;18.41;72.22
71082;SHT31;58740;50.672;18.690;2023-07-20T03:40:26;18.37;72.47
71082;SHT31;58740;50.672;18.690;2023-07-20T03:42:54;18.38;72.49
71082;SHT31;58740;50.672;18.690;2023-07-20T03:45:22;18.39;72.37
71082;SHT31;58740;50.672;18.690;2023-07-20T03:47:51;18.40;72.36
71082;SHT31;58740;50.672;18.690;2023-07-20T03:50:19;18.36;72.53
71082;SHT31;58740;50.672;18.690;2023-07-20T03:52:47;18.34;72.57
71082;SHT31;58740;50.672;18.690;2023-07-20T03:55:15;18.33;72.83
71082;SHT31;58740;50.672;18.690;2023-07-20T03:57:42;18.35;72.87
71082;SHT31;58740;50.672;18.690;2023-07-20T04:00:11;18.36;72.74
71082;SHT31;58740;50.672;18.690;2023-07-20T04:02:41;18.37;72.63
71082;SHT31;58740;50.672;18.690;2023-07-20T04:05:10;18.36;72.75
71082;SHT31;58740;50.672;18.690;2023-07-20T04:07:38;18.35;73.08
71082;SHT31;58740;50.672;18.690;2023-07-20T04:10:05;18.35;73.56
71082;SHT31;58740;50.672;18.690;2023-07-20T04:12:34;18.37;73.53
71082;SHT31;58740;50.672;18.690;2023-07-20T04:15:02;18.40;73.15
71082;SHT31;58740;50.672;18.690;2023-07-20T04:17:31;18.44;73.27
71082;SHT31;58740;50.672;18.690;2023-07-20T04:19:59;18.46;73.37
71082;SHT31;58740;50.672;18.690;2023-07-20T04:22:27;18.48;73.18
71082;SHT31;58740;50.672;18.690;2023-07-20T04:24:54;18.46;73.36
71082;SHT31;58740;50.672;18.690;2023-07-20T04:27:22;18.47;73.37
71082;SHT31;58740;50.672;18.690;2023-07-20T04:29:50;18.49;73.07
71082;SHT31;58740;50.672;18.690;2023-07-20T04:32:18;18.53;73.13
71082;SHT31;58740;50.672;18.690;2023-07-20T04:34:46;18.58;73.16
71082;SHT31;58740;50.672;18.690;2023-07-20T04:37:13;18.59;73.31
71082;SHT31;58740;50.672;18.690;2023-07-20T04:39:41;18.60;73.34
71082;SHT31;58740;50.672;18.690;2023-07-20T04:42:09;18.63;73.33
71082;SHT31;58740;50.672;18.690;2023-07-20T04:44:37;18.64;73.32
71082;SHT31;58740;50.672;18.690;2023-07-20T04:47:04;18.65;73.37
71082;SHT31;58740;50.672;18.690;2023-07-20T04:49:32;18.68;73.29
71082;SHT31;58740;50.672;18.690;2023-07-20T04:52:00;18.71;73.12
71082;SHT31;58740;50.672;18.690;2023-07-20T04:54:30;18.74;73.02
71082;SHT31;58740;50.672;18.690;2023-07-20T04:56:57;18.78;72.92
71082;SHT31;58740;50.672;18.690;2023-07-20T04:59:25;18.83;72.98
71082;SHT31;58740;50.672;18.690;2023-07-20T05:01:53;18.85;72.89
71082;SHT31;58740;50.672;18.690;2023-07-20T05:04:21;18.85;72.77
71082;SHT31;58740;50.672;18.690;2023-07-20T05:06:49;18.82;72.73
71082;SHT31;58740;50.672;18.690;2023-07-20T05:09:17;18.81;72.73
71082;SHT31;58740;50.672;18.690;2023-07-20T05:11:44;18.81;72.92
71082;SHT31;58740;50.672;18.690;2023-07-20T05:14:14;18.86;72.87
71082;SHT31;58740;50.672;18.690;2023-07-20T05:16:42;18.91;72.74
71082;SHT31;58740;50.672;18.690;2023-07-20T05:19:10;18.95;72.75
71082;SHT31;58740;50.672;18.690;2023-07-20T05:21:38;19.02;72.84
71082;SHT31;58740;50.672;18.690;2023-07-20T05:24:06;19.08;72.82
71082;SHT31;58740;50.672;18.690;2023-07-20T05:26:34;19.14;72.63
71082;SHT31;58740;50.672;18.690;2023-07-20T05:29:02;19.19;72.56
71082;SHT31;58740;50.672;18.690;2023-07-20T05:31:30;19.25;72.44
71082;SHT31;58740;50.672;18.690;2023-07-20T05:33:59;19.29;72.07
71082;SHT31;58740;50.672;18.690;2023-07-20T05:36:27;19.35;71.97
71082;SHT31;58740;50.672;18.690;2023-07-20T05:38:55;19.40;71.50
71082;SHT31;58740;50.672;18.690;2023-07-20T05:41:22;19.47;71.58
71082;SHT31;58740;50.672;18.690;2023-07-20T05:43:50;19.53;71.53
71082;SHT31;58740;50.672;18.690;2023-07-20T05:46:18;19.58;71.43
71082;SHT31;58740;50.672;18.690;2023-07-20T05:48:46;19.64;71.15
71082;SHT31;58740;50.672;18.690;2023-07-20T05:51:14;19.68;69.87
71082;SHT31;58740;50.672;18.690;2023-07-20T05:53:42;19.67;69.47
71082;SHT31;58740;50.672;18.690;2023-07-20T05:56:10;19.70;69.54
71082;SHT31;58740;50.672;18.690;2023-07-20T05:58:37;19.78;69.72
71082;SHT31;58740;50.672;18.690;2023-07-20T06:01:05;19.89;70.11
71082;SHT31;58740;50.672;18.690;2023-07-20T06:03:33;20.03;69.80
71082;SHT31;58740;50.672;18.690;2023-07-20T06:06:01;20.15;69.19
71082;SHT31;58740;50.672;18.690;2023-07-20T06:08:31;20.29;68.98
71082;SHT31;58740;50.672;18.690;2023-07-20T06:10:59;20.39;68.70
71082;SHT31;58740;50.672;18.690;2023-07-20T06:13:27;20.50;68.47
71082;SHT31;58740;50.672;18.690;2023-07-20T06:15:55;20.55;68.27
71082;SHT31;58740;50.672;18.690;2023-07-20T06:18:23;20.51;68.30
71082;SHT31;58740;50.672;18.690;2023-07-20T06:20:51;20.57;67.96
71082;SHT31;58740;50.672;18.690;2023-07-20T06:23:19;20.58;67.55
71082;SHT31;58740;50.672;18.690;2023-07-20T06:25:47;20.63;67.62
71082;SHT31;58740;50.672;18.690;2023-07-20T06:28:15;20.65;67.71
71082;SHT31;58740;50.672;18.690;2023-07-20T06:30:43;20.61;67.31
71082;SHT31;58740;50.672;18.690;2023-07-20T06:33:11;20.54;67.28
71082;SHT31;58740;50.672;18.690;2023-07-20T06:35:41;20.49;67.50
71082;SHT31;58740;50.672;18.690;2023-07-20T06:38:10;20.43;67.52
71082;SHT31;58740;50.672;18.690;2023-07-20T06:40:41;20.36;67.95
71082;SHT31;58740;50.672;18.690;2023-07-20T06:43:09;20.29;68.14
71082;SHT31;58740;50.672;18.690;2023-07-20T06:45:39;20.22;68.13
71082;SHT31;58740;50.672;18.690;2023-07-20T06:48:08;20.17;68.47
71082;SHT31;58740;50.672;18.690;2023-07-20T06:50:36;20.12;68.80
71082;SHT31;58740;50.672;18.690;2023-07-20T06:53:04;20.08;68.91
71082;SHT31;58740;50.672;18.690;2023-07-20T06:55:31;20.04;68.62
71082;SHT31;58740;50.672;18.690;2023-07-20T06:58:09;20.01;68.68
71082;SHT31;58740;50.672;18.690;2023-07-20T07:00:38;19.99;68.72
71082;SHT31;58740;50.672;18.690;2023-07-20T07:03:06;19.96;68.81
71082;SHT31;58740;50.672;18.690;2023-07-20T07:05:35;19.97;68.77
71082;SHT31;58740;50.672;18.690;2023-07-20T07:08:05;20.04;69.28
71082;SHT31;58740;50.672;18.690;2023-07-20T07:10:34;20.08;69.04
71082;SHT31;58740;50.672;18.690;2023-07-20T07:13:03;20.12;68.93
71082;SHT31;58740;50.672;18.690;2023-07-20T07:15:33;20.19;68.95
71082;SHT31;58740;50.672;18.690;2023-07-20T07:18:01;20.32;68.64
71082;SHT31;58740;50.672;18.690;2023-07-20T07:20:31;20.47;68.72
71082;SHT31;58740;50.672;18.690;2023-07-20T07:22:59;20.64;68.18
71082;SHT31;58740;50.672;18.690;2023-07-20T07:25:27;20.69;67.62
71082;SHT31;58740;50.672;18.690;2023-07-20T07:27:55;20.71;67.52
71082;SHT31;58740;50.672;18.690;2023-07-20T07:30:23;20.76;67.39
71082;SHT31;58740;50.672;18.690;2023-07-20T07:32:51;20.75;67.38
71082;SHT31;58740;50.672;18.690;2023-07-20T07:35:19;20.72;67.31
71082;SHT31;58740;50.672;18.690;2023-07-20T07:37:47;20.67;67.05
71082;SHT31;58740;50.672;18.690;2023-07-20T07:40:18;20.60;67.28
71082;SHT31;58740;50.672;18.690;2023-07-20T07:42:45;20.54;67.41
71082;SHT31;58740;50.672;18.690;2023-07-20T07:45:13;20.48;67.59
71082;SHT31;58740;50.672;18.690;2023-07-20T07:47:42;20.41;67.82
71082;SHT31;58740;50.672;18.690;2023-07-20T07:50:10;20.39;67.98
71082;SHT31;58740;50.672;18.690;2023-07-20T07:52:38;20.36;68.06
71082;SHT31;58740;50.672;18.690;2023-07-20T07:55:13;20.35;68.14
71082;SHT31;58740;50.672;18.690;2023-07-20T07:57:44;20.35;68.37
71082;SHT31;58740;50.672;18.690;2023-07-20T08:00:12;20.37;68.44
71082;SHT31;58740;50.672;18.690;2023-07-20T08:02:42;20.39;68.13
71082;SHT31;58740;50.672;18.690;2023-07-20T08:05:11;20.39;67.71
71082;SHT31;58740;50.672;18.690;2023-07-20T08:07:38;20.39;67.21
71082;SHT31;58740;50.672;18.690;2023-07-20T08:10:07;20.39;67.12
71082;SHT31;58740;50.672;18.690;2023-07-20T08:12:35;20.39;67.07
71082;SHT31;58740;50.672;18.690;2023-07-20T08:15:03;20.41;66.72
71082;SHT31;58740;50.672;18.690;2023-07-20T08:17:32;20.40;66.50
71082;SHT31;58740;50.672;18.690;2023-07-20T08:20:00;20.40;66.21
71082;SHT31;58740;50.672;18.690;2023-07-20T08:22:28;20.37;66.37
71082;SHT31;58740;50.672;18.690;2023-07-20T08:24:55;20.35;66.29
71082;SHT31;58740;50.672;18.690;2023-07-20T08:27:24;20.35;66.41
71082;SHT31;58740;50.672;18.690;2023-07-20T08:29:52;20.35;66.15
71082;SHT31;58740;50.672;18.690;2023-07-20T08:32:20;20.34;66.26
71082;SHT31;58740;50.672;18.690;2023-07-20T08:34:48;20.34;66.26
71082;SHT31;58740;50.672;18.690;2023-07-20T08:37:16;20.39;66.87
71082;SHT31;58740;50.672;18.690;2023-07-20T08:39:43;20.46;66.78
71082;SHT31;58740;50.672;18.690;2023-07-20T08:42:11;20.51;66.84
71082;SHT31;58740;50.672;18.690;2023-07-20T08:44:42;20.55;66.28
71082;SHT31;58740;50.672;18.690;2023-07-20T08:47:12;20.58;66.06
71082;SHT31;58740;50.672;18.690;2023-07-20T08:49:43;20.61;65.95
71082;SHT31;58740;50.672;18.690;2023-07-20T08:52:18;20.66;66.26
71082;SHT31;58740;50.672;18.690;2023-07-20T08:54:45;20.72;66.10
71082;SHT31;58740;50.672;18.690;2023-07-20T08:57:14;20.76;65.81
71082;SHT31;58740;50.672;18.690;2023-07-20T08:59:43;20.80;65.89
71082;SHT31;58740;50.672;18.690;2023-07-20T09:02:13;20.83;65.47
71082;SHT31;58740;50.672;18.690;2023-07-20T09:04:46;20.82;65.22
71082;SHT31;58740;50.672;18.690;2023-07-20T09:07:14;20.81;65.20
71082;SHT31;58740;50.672;18.690;2023-07-20T09:09:43;20.80;65.24
71082;SHT31;58740;50.672;18.690;2023-07-20T09:12:14;20.78;65.44
71082;SHT31;58740;50.672;18.690;2023-07-20T09:14:44;20.80;65.44
71082;SHT31;58740;50.672;18.690;2023-07-20T09:17:12;20.80;65.23
71082;SHT31;58740;50.672;18.690;2023-07-20T09:19:47;20.79;65.66
71082;SHT31;58740;50.672;18.690;2023-07-20T09:22:16;20.76;64.93
71082;SHT31;58740;50.672;18.690;2023-07-20T09:24:45;20.76;65.19
71082;SHT31;58740;50.672;18.690;2023-07-20T09:27:13;20.79;65.05
71082;SHT31;58740;50.672;18.690;2023-07-20T09:29:50;20.88;65.39
71082;SHT31;58740;50.672;18.690;2023-07-20T09:32:19;21.00;65.26
71082;SHT31;58740;50.672;18.690;2023-07-20T09:34:52;21.09;64.62
71082;SHT31;58740;50.672;18.690;2023-07-20T09:37:21;21.14;64.84
71082;SHT31;58740;50.672;18.690;2023-07-20T09:39:53;21.26;64.66
71082;SHT31;58740;50.672;18.690;2023-07-20T09:42:24;21.36;64.10
71082;SHT31;58740;50.672;18.690;2023-07-20T09:44:57;21.51;64.32
71082;SHT31;58740;50.672;18.690;2023-07-20T09:47:25;21.56;63.67
71082;SHT31;58740;50.672;18.690;2023-07-20T09:49:58;21.56;63.40
71082;SHT31;58740;50.672;18.690;2023-07-20T09:52:31;21.54;63.78
71082;SHT31;58740;50.672;18.690;2023-07-20T09:55:02;21.52;63.74
71082;SHT31;58740;50.672;18.690;2023-07-20T09:57:32;21.49;63.22
71082;SHT31;58740;50.672;18.690;2023-07-20T10:00:03;21.46;62.78
71082;SHT31;58740;50.672;18.690;2023-07-20T10:02:43;21.43;62.81
71082;SHT31;58740;50.672;18.690;2023-07-20T10:05:13;21.43;63.05
71082;SHT31;58740;50.672;18.690;2023-07-20T10:07:49;21.42;63.17
71082;SHT31;58740;50.672;18.690;2023-07-20T10:10:40;21.42;62.88
71082;SHT31;58740;50.672;18.690;2023-07-20T10:13:17;21.42;62.72
71082;SHT31;58740;50.672;18.690;2023-07-20T10:16:01;21.40;62.36
71082;SHT31;58740;50.672;18.690;2023-07-20T10:18:41;21.44;62.97
71082;SHT31;58740;50.672;18.690;2023-07-20T10:21:48;21.56;63.24
71082;SHT31;58740;50.672;18.690;2023-07-20T10:24:31;21.63;62.88
71082;SHT31;58740;50.672;18.690;2023-07-20T10:27:01;21.70;62.43
71082;SHT31;58740;50.672;18.690;2023-07-20T10:29:30;21.76;61.64
71082;SHT31;58740;50.672;18.690;2023-07-20T10:31:59;21.80;61.91
71082;SHT31;58740;50.672;18.690;2023-07-20T10:34:28;21.86;62.45
71082;SHT31;58740;50.672;18.690;2023-07-20T10:36:56;21.92;61.86
71082;SHT31;58740;50.672;18.690;2023-07-20T10:39:27;21.95;61.76
71082;SHT31;58740;50.672;18.690;2023-07-20T10:42:08;22.04;62.17
71082;SHT31;58740;50.672;18.690;2023-07-20T10:44:37;22.13;61.42
71082;SHT31;58740;50.672;18.690;2023-07-20T10:47:11;22.20;61.27
71082;SHT31;58740;50.672;18.690;2023-07-20T10:49:59;22.27;60.29
71082;SHT31;58740;50.672;18.690;2023-07-20T10:52:36;22.34;60.35
71082;SHT31;58740;50.672;18.690;2023-07-20T10:55:11;22.43;59.96
71082;SHT31;58740;50.672;18.690;2023-07-20T10:57:42;22.48;59.32
71082;SHT31;58740;50.672;18.690;2023-07-20T11:00:12;22.53;59.87
71082;SHT31;58740;50.672;18.690;2023-07-20T11:02:46;22.58;58.96
71082;SHT31;58740;50.672;18.690;2023-07-20T11:05:52;22.62;58.27
71082;SHT31;58740;50.672;18.690;2023-07-20T11:08:12;22.68;58.33
71082;SHT31;58740;50.672;18.690;2023-07-20T11:10:40;22.77;57.26
71082;SHT31;58740;50.672;18.690;2023-07-20T11:13:17;22.83;57.02
71082;SHT31;58740;50.672;18.690;2023-07-20T11:15:47;22.88;56.51
71082;SHT31;58740;50.672;18.690;2023-07-20T11:18:28;22.93;56.36
71082;SHT31;58740;50.672;18.690;2023-07-20T11:20:59;22.98;56.93
71082;SHT31;58740;50.672;18.690;2023-07-20T11:23:26;23.05;56.79
71082;SHT31;58740;50.672;18.690;2023-07-20T11:25:56;23.15;56.63
71082;SHT31;58740;50.672;18.690;2023-07-20T11:28:24;23.20;56.19
71082;SHT31;58740;50.672;18.690;2023-07-20T11:30:52;23.19;55.12
71082;SHT31;58740;50.672;18.690;2023-07-20T11:33:23;23.14;54.60
71082;SHT31;58740;50.672;18.690;2023-07-20T11:35:51;23.05;55.00
71082;SHT31;58740;50.672;18.690;2023-07-20T11:38:20;22.94;55.38
71082;SHT31;58740;50.672;18.690;2023-07-20T11:40:48;22.80;57.07
71082;SHT31;58740;50.672;18.690;2023-07-20T11:43:15;22.61;59.38
71082;SHT31;58740;50.672;18.690;2023-07-20T11:45:47;22.38;60.88
71082;SHT31;58740;50.672;18.690;2023-07-20T11:48:18;22.09;61.64
71082;SHT31;58740;50.672;18.690;2023-07-20T11:50:45;21.83;61.93
71082;SHT31;58740;50.672;18.690;2023-07-20T11:53:14;21.61;63.06
71082;SHT31;58740;50.672;18.690;2023-07-20T11:55:43;21.47;63.75
71082;SHT31;58740;50.672;18.690;2023-07-20T11:58:13;21.39;64.29
71082;SHT31;58740;50.672;18.690;2023-07-20T12:00:44;21.36;64.68
71082;SHT31;58740;50.672;18.690;2023-07-20T12:03:13;21.36;65.50
71082;SHT31;58740;50.672;18.690;2023-07-20T12:05:41;21.39;66.51
71082;SHT31;58740;50.672;18.690;2023-07-20T12:08:12;21.43;66.21
71082;SHT31;58740;50.672;18.690;2023-07-20T12:10:40;21.49;66.70
71082;SHT31;58740;50.672;18.690;2023-07-20T12:13:11;21.53;67.11
71082;SHT31;58740;50.672;18.690;2023-07-20T12:15:39;21.59;66.21
71082;SHT31;58740;50.672;18.690;2023-07-20T12:18:07;21.66;65.83
71082;SHT31;58740;50.672;18.690;2023-07-20T12:20:36;21.73;65.47
71082;SHT31;58740;50.672;18.690;2023-07-20T12:23:17;21.80;65.10
71082;SHT31;58740;50.672;18.690;2023-07-20T12:25:46;21.87;64.86
71082;SHT31;58740;50.672;18.690;2023-07-20T12:28:16;21.92;64.49
71082;SHT31;58740;50.672;18.690;2023-07-20T12:30:46;21.95;63.53
71082;SHT31;58740;50.672;18.690;2023-07-20T12:33:23;21.99;63.27
71082;SHT31;58740;50.672;18.690;2023-07-20T12:35:51;22.02;62.19
71082;SHT31;58740;50.672;18.690;2023-07-20T12:38:23;22.02;61.94
71082;SHT31;58740;50.672;18.690;2023-07-20T12:40:51;22.05;62.91
71082;SHT31;58740;50.672;18.690;2023-07-20T12:43:19;22.09;62.16
71082;SHT31;58740;50.672;18.690;2023-07-20T12:45:47;22.12;61.87
71082;SHT31;58740;50.672;18.690;2023-07-20T12:48:15;22.17;61.38
71082;SHT31;58740;50.672;18.690;2023-07-20T12:50:43;22.21;61.16
71082;SHT31;58740;50.672;18.690;2023-07-20T12:53:11;22.28;61.42
71082;SHT31;58740;50.672;18.690;2023-07-20T12:55:39;22.34;60.58
71082;SHT31;58740;50.672;18.690;2023-07-20T12:58:07;22.39;60.08
71082;SHT31;58740;50.672;18.690;2023-07-20T13:00:36;22.45;59.73
71082;SHT31;58740;50.672;18.690;2023-07-20T13:03:04;22.52;59.61
71082;SHT31;58740;50.672;18.690;2023-07-20T13:05:35;22.59;59.25
71082;SHT31;58740;50.672;18.690;2023-07-20T13:08:06;22.64;58.74
71082;SHT31;58740;50.672;18.690;2023-07-20T13:10:37;22.69;58.83
71082;SHT31;58740;50.672;18.690;2023-07-20T13:13:06;22.73;58.37
71082;SHT31;58740;50.672;18.690;2023-07-20T13:15:40;22.76;57.49
71082;SHT31;58740;50.672;18.690;2023-07-20T13:18:11;22.75;57.35
71082;SHT31;58740;50.672;18.690;2023-07-20T13:20:38;22.79;57.49
71082;SHT31;58740;50.672;18.690;2023-07-20T13:23:06;22.82;57.05
71082;SHT31;58740;50.672;18.690;2023-07-20T13:25:34;22.82;57.14
71082;SHT31;58740;50.672;18.690;2023-07-20T13:28:02;22.83;56.47
71082;SHT31;58740;50.672;18.690;2023-07-20T13:30:30;22.85;56.01
71082;SHT31;58740;50.672;18.690;2023-07-20T13:32:58;22.89;55.43
71082;SHT31;58740;50.672;18.690;2023-07-20T13:35:27;22.93;54.75
71082;SHT31;58740;50.672;18.690;2023-07-20T13:38:15;23.00;54.66
71082;SHT31;58740;50.672;18.690;2023-07-20T13:40:44;23.08;54.86
71082;SHT31;58740;50.672;18.690;2023-07-20T13:43:11;23.14;54.65
71082;SHT31;58740;50.672;18.690;2023-07-20T13:45:39;23.15;54.34
71082;SHT31;58740;50.672;18.690;2023-07-20T13:48:07;23.12;53.20
71082;SHT31;58740;50.672;18.690;2023-07-20T13:50:35;23.11;53.10
71082;SHT31;58740;50.672;18.690;2023-07-20T13:53:06;23.11;53.04
71082;SHT31;58740;50.672;18.690;2023-07-20T13:55:37;23.12;53.56
71082;SHT31;58740;50.672;18.690;2023-07-20T13:58:08;23.13;54.05
71082;SHT31;58740;50.672;18.690;2023-07-20T14:00:39;23.13;52.95
71082;SHT31;58740;50.672;18.690;2023-07-20T14:03:08;23.10;52.74
71082;SHT31;58740;50.672;18.690;2023-07-20T14:05:39;23.08;52.48
71082;SHT31;58740;50.672;18.690;2023-07-20T14:08:10;23.06;52.18
71082;SHT31;58740;50.672;18.690;2023-07-20T14:10:38;23.01;52.20
71082;SHT31;58740;50.672;18.690;2023-07-20T14:13:09;22.99;51.96
71082;SHT31;58740;50.672;18.690;2023-07-20T14:15:38;22.96;52.10
71082;SHT31;58740;50.672;18.690;2023-07-20T14:18:07;22.92;51.85
71082;SHT31;58740;50.672;18.690;2023-07-20T14:20:35;22.89;51.28
71082;SHT31;58740;50.672;18.690;2023-07-20T14:23:05;22.87;51.34
71082;SHT31;58740;50.672;18.690;2023-07-20T14:25:33;22.82;50.72
71082;SHT31;58740;50.672;18.690;2023-07-20T14:28:04;22.76;51.27
71082;SHT31;58740;50.672;18.690;2023-07-20T14:30:32;22.73;52.36
71082;SHT31;58740;50.672;18.690;2023-07-20T14:33:01;22.67;52.72
71082;SHT31;58740;50.672;18.690;2023-07-20T14:35:28;22.60;53.06
71082;SHT31;58740;50.672;18.690;2023-07-20T14:37:56;22.53;53.14
71082;SHT31;58740;50.672;18.690;2023-07-20T14:40:24;22.43;53.56
71082;SHT31;58740;50.672;18.690;2023-07-20T14:42:52;22.35;53.97
71082;SHT31;58740;50.672;18.690;2023-07-20T14:45:20;22.25;54.18
71082;SHT31;58740;50.672;18.690;2023-07-20T14:47:48;22.10;54.67
71082;SHT31;58740;50.672;18.690;2023-07-20T14:50:21;21.94;55.36
71082;SHT31;58740;50.672;18.690;2023-07-20T14:52:50;21.79;56.39
71082;SHT31;58740;50.672;18.690;2023-07-20T14:55:18;21.72;56.82
71082;SHT31;58740;50.672;18.690;2023-07-20T14:57:46;21.64;56.90
71082;SHT31;58740;50.672;18.690;2023-07-20T15:00:16;21.59;57.57
71082;SHT31;58740;50.672;18.690;2023-07-20T15:02:44;21.57;58.64
71082;SHT31;58740;50.672;18.690;2023-07-20T15:05:12;21.52;58.12
71082;SHT31;58740;50.672;18.690;2023-07-20T15:07:47;21.50;57.94
71082;SHT31;58740;50.672;18.690;2023-07-20T15:10:16;21.47;57.57
71082;SHT31;58740;50.672;18.690;2023-07-20T15:12:44;21.43;57.47
71082;SHT31;58740;50.672;18.690;2023-07-20T15:15:13;21.43;57.40
71082;SHT31;58740;50.672;18.690;2023-07-20T15:17:42;21.44;57.65
71082;SHT31;58740;50.672;18.690;2023-07-20T15:20:13;21.46;57.34
71082;SHT31;58740;50.672;18.690;2023-07-20T15:22:41;21.51;57.70
71082;SHT31;58740;50.672;18.690;2023-07-20T15:25:09;21.56;57.35
71082;SHT31;58740;50.672;18.690;2023-07-20T15:27:39;21.59;56.60
71082;SHT31;58740;50.672;18.690;2023-07-20T15:30:17;21.59;56.81
71082;SHT31;58740;50.672;18.690;2023-07-20T15:32:48;21.64;57.00
71082;SHT31;58740;50.672;18.690;2023-07-20T15:35:19;21.69;57.13